sensor_id;sensor_type;location;lat;lon;timestamp;P1;durP1;ratioP1;P2;durP2;ratioP2
13764;SDS011;6953;48.810;9.204;2023-09-07T00:00:37;0.30;;;0.30;;
13764;SDS011;6953;48.810;9.204;2023-09-07T00:03:03;0.20;;;0.20;;
13764;SDS011;6953;48.810;9.204;2023-09-07T00:05:29;0.20;;;0.20;;
13764;SDS011;6953;48.810;9.204;2023-09-07T00:07:54;0.30;;;0.30;;
13764;SDS011;6953;48.810;9.204;2023-09-07T00:10:21;0.30;;;0.30;;
13764;SDS011;6953;48.810;9.204;2023-09-07T00:12:46;0.30;;;0.30;;
13764;SDS011;6953;48.810;9.204;2023-09-07T00:15:11;0.30;;;0.30;;
13764;SDS011;6953;48.810;9.204;2023-09-07T00:17:37;0.30;;;0.30;;
13764;SDS011;6953;48.810;9.204;2023-09-07T00:20:02;0.30;;;0.30;;
13764;SDS011;6953;48.810;9.204;2023-09-07T00:22:39;0.30;;;0.30;;
13764;SDS011;6953;48.810;9.204;2023-09-07T00:25:05;0.30;;;0.30;;
13764;SDS011;6953;48.810;9.204;2023-09-07T00:27:31;0.30;;;0.30;;
13764;SDS011;6953;48.810;9.204;2023-09-07T00:30:00;0.25;;;0.25;;
13764;SDS011;6953;48.810;9.204;2023-09-07T00:32:26;0.30;;;0.30;;
13764;SDS011;6953;48.810;9.204;2023-09-07T00:34:51;0.40;;;0.40;;
13764;SDS011;6953;48.810;9.204;2023-09-07T00:37:17;0.30;;;0.30;;
13764;SDS011;6953;48.810;9.204;2023-09-07T00:39:42;0.30;;;0.30;;
13764;SDS011;6953;48.810;9.204;2023-09-07T00:42:07;0.20;;;0.20;;
13764;SDS011;6953;48.810;9.204;2023-09-07T00:44:33;0.40;;;0.40;;
13764;SDS011;6953;48.810;9.204;2023-09-07T00:46:58;0.30;;;0.30;;
13764;SDS011;6953;48.810;9.204;2023-09-07T00:49:24;0.30;;;0.30;;
13764;SDS011;6953;48.810;9.204;2023-09-07T00:51:50;0.30;;;0.30;;
13764;SDS011;6953;48.810;9.204;2023-09-07T00:54:16;0.30;;;0.30;;
13764;SDS011;6953;48.810;9.204;2023-09-07T00:56:41;0.30;;;0.30;;
13764;SDS011;6953;48.810;9.204;2023-09-07T00:59:07;0.30;;;0.30;;
13764;SDS011;6953;48.810;9.204;2023-09-07T01:01:33;0.40;;;0.40;;
13764;SDS011;6953;48.810;9.204;2023-09-07T01:04:00;0.30;;;0.30;;
13764;SDS011;6953;48.810;9.204;2023-09-07T01:06:28;0.30;;;0.30;;
13764;SDS011;6953;48.810;9.204;2023-09-07T01:08:55;0.40;;;0.40;;
13764;SDS011;6953;48.810;9.204;2023-09-07T01:11:25;0.30;;;0.30;;
13764;SDS011;6953;48.810;9.204;2023-09-07T01:13:51;0.30;;;0.30;;
13764;SDS011;6953;48.810;9.204;2023-09-07T01:16:20;0.30;;;0.30;;
13764;SDS011;6953;48.810;9.204;2023-09-07T01:18:47;0.38;;;0.38;;
13764;SDS011;6953;48.810;9.204;2023-09-07T01:21:12;0.40;;;0.40;;
13764;SDS011;6953;48.810;9.204;2023-09-07T01:23:42;0.30;;;0.30;;
13764;SDS011;6953;48.810;9.204;2023-09-07T01:26:10;0.30;;;0.30;;
13764;SDS011;6953;48.810;9.204;2023-09-07T01:28:36;0.40;;;0.40;;
13764;SDS011;6953;48.810;9.204;2023-09-07T01:31:04;0.30;;;0.30;;
13764;SDS011;6953;48.810;9.204;2023-09-07T01:33:31;0.30;;;0.30;;
13764;SDS011;6953;48.810;9.204;2023-09-07T01:35:56;0.30;;;0.30;;
13764;SDS011;6953;48.810;9.204;2023-09-07T01:38:22;0.30;;;0.30;;
13764;SDS011;6953;48.810;9.204;2023-09-07T01:40:47;0.30;;;0.30;;
13764;SDS011;6953;48.810;9.204;2023-09-07T01:43:12;0.40;;;0.40;;
13764;SDS011;6953;48.810;9.204;2023-09-07T01:45:38;0.30;;;0.30;;
13764;SDS011;6953;48.810;9.204;2023-09-07T01:48:05;0.40;;;0.40;;
13764;SDS011;6953;48.810;9.204;2023-09-07T01:50:33;0.30;;;0.30;;
13764;SDS011;6953;48.810;9.204;2023-09-07T01:52:59;0.30;;;0.30;;
13764;SDS011;6953;48.810;9.204;2023-09-07T01:55:26;0.30;;;0.30;;
13764;SDS011;6953;48.810;9.204;2023-09-07T01:57:52;0.40;;;0.40;;
13764;SDS011;6953;48.810;9.204;2023-09-07T02:00:17;0.40;;;0.40;;
13764;SDS011;6953;48.810;9.204;2023-09-07T02:02:42;0.30;;;0.30;;
13764;SDS011;6953;48.810;9.204;2023-09-07T02:05:08;0.40;;;0.40;;
13764;SDS011;6953;48.810;9.204;2023-09-07T02:07:35;0.40;;;0.40;;
13764;SDS011;6953;48.810;9.204;2023-09-07T02:10:01;0.40;;;0.40;;
13764;SDS011;6953;48.810;9.204;2023-09-07T02:12:28;0.40;;;0.40;;
13764;SDS011;6953;48.810;9.204;2023-09-07T02:14:54;0.30;;;0.30;;
13764;SDS011;6953;48.810;9.204;2023-09-07T02:17:19;0.32;;;0.32;;
13764;SDS011;6953;48.810;9.204;2023-09-07T02:19:45;0.35;;;0.35;;
13764;SDS011;6953;48.810;9.204;2023-09-07T02:22:11;0.40;;;0.40;;
13764;SDS011;6953;48.810;9.204;2023-09-07T02:24:36;0.30;;;0.30;;
13764;SDS011;6953;48.810;9.204;2023-09-07T02:27:01;0.40;;;0.40;;
13764;SDS011;6953;48.810;9.204;2023-09-07T02:29:27;0.30;;;0.30;;
13764;SDS011;6953;48.810;9.204;2023-09-07T02:31:52;0.35;;;0.35;;
13764;SDS011;6953;48.810;9.204;2023-09-07T02:34:17;0.40;;;0.40;;
13764;SDS011;6953;48.810;9.204;2023-09-07T02:36:43;0.40;;;0.40;;
13764;SDS011;6953;48.810;9.204;2023-09-07T02:39:08;0.40;;;0.40;;
13764;SDS011;6953;48.810;9.204;2023-09-07T02:41:33;0.40;;;0.40;;
13764;SDS011;6953;48.810;9.204;2023-09-07T02:43:59;0.40;;;0.40;;
13764;SDS011;6953;48.810;9.204;2023-09-07T02:46:24;0.38;;;0.38;;
13764;SDS011;6953;48.810;9.204;2023-09-07T02:48:49;0.40;;;0.40;;
13764;SDS011;6953;48.810;9.204;2023-09-07T02:51:15;0.40;;;0.40;;
13764;SDS011;6953;48.810;9.204;2023-09-07T02:53:40;0.40;;;0.40;;
13764;SDS011;6953;48.810;9.204;2023-09-07T02:56:05;0.40;;;0.40;;
13764;SDS011;6953;48.810;9.204;2023-09-07T02:58:32;0.30;;;0.30;;
13764;SDS011;6953;48.810;9.204;2023-09-07T03:00:58;0.40;;;0.40;;
13764;SDS011;6953;48.810;9.204;2023-09-07T03:03:23;0.40;;;0.40;;
13764;SDS011;6953;48.810;9.204;2023-09-07T03:05:49;0.40;;;0.40;;
13764;SDS011;6953;48.810;9.204;2023-09-07T03:08:14;0.40;;;0.40;;
13764;SDS011;6953;48.810;9.204;2023-09-07T03:10:39;0.30;;;0.30;;
13764;SDS011;6953;48.810;9.204;2023-09-07T03:13:06;0.40;;;0.40;;
13764;SDS011;6953;48.810;9.204;2023-09-07T03:15:32;0.30;;;0.30;;
13764;SDS011;6953;48.810;9.204;2023-09-07T03:17:58;0.40;;;0.40;;
13764;SDS011;6953;48.810;9.204;2023-09-07T03:20:24;0.40;;;0.40;;
13764;SDS011;6953;48.810;9.204;2023-09-07T03:22:49;0.40;;;0.40;;
13764;SDS011;6953;48.810;9.204;2023-09-07T03:25:15;0.30;;;0.30;;
13764;SDS011;6953;48.810;9.204;2023-09-07T03:27:40;0.30;;;0.30;;
13764;SDS011;6953;48.810;9.204;2023-09-07T03:30:05;0.40;;;0.40;;
13764;SDS011;6953;48.810;9.204;2023-09-07T03:32:32;0.32;;;0.32;;
13764;SDS011;6953;48.810;9.204;2023-09-07T03:34:58;0.40;;;0.40;;
13764;SDS011;6953;48.810;9.204;2023-09-07T03:37:25;0.40;;;0.40;;
13764;SDS011;6953;48.810;9.204;2023-09-07T03:39:50;0.50;;;0.50;;
13764;SDS011;6953;48.810;9.204;2023-09-07T03:42:16;0.40;;;0.40;;
13764;SDS011;6953;48.810;9.204;2023-09-07T03:44:41;0.30;;;0.30;;
13764;SDS011;6953;48.810;9.204;2023-09-07T03:47:06;0.40;;;0.40;;
13764;SDS011;6953;48.810;9.204;2023-09-07T03:49:32;0.40;;;0.40;;
13764;SDS011;6953;48.810;9.204;2023-09-07T03:51:57;0.40;;;0.40;;
13764;SDS011;6953;48.810;9.204;2023-09-07T03:54:22;0.40;;;0.40;;
13764;SDS011;6953;48.810;9.204;2023-09-07T03:56:48;0.40;;;0.40;;
13764;SDS011;6953;48.810;9.204;2023-09-07T03:59:13;0.38;;;0.38;;
13764;SDS011;6953;48.810;9.204;2023-09-07T04:01:38;0.40;;;0.40;;
13764;SDS011;6953;48.810;9.204;2023-09-07T04:04:04;0.40;;;0.40;;
13764;SDS011;6953;48.810;9.204;2023-09-07T04:06:29;0.40;;;0.40;;
13764;SDS011;6953;48.810;9.204;2023-09-07T04:08:55;0.47;;;0.47;;
13764;SDS011;6953;48.810;9.204;2023-09-07T04:11:20;0.40;;;0.40;;
13764;SDS011;6953;48.810;9.204;2023-09-07T04:13:45;0.40;;;0.40;;
13764;SDS011;6953;48.810;9.204;2023-09-07T04:16:11;0.30;;;0.30;;
13764;SDS011;6953;48.810;9.204;2023-09-07T04:18:36;0.35;;;0.35;;
13764;SDS011;6953;48.810;9.204;2023-09-07T04:21:07;0.40;;;0.40;;
13764;SDS011;6953;48.810;9.204;2023-09-07T04:23:34;0.40;;;0.40;;
13764;SDS011;6953;48.810;9.204;2023-09-07T04:26:07;0.40;;;0.40;;
13764;SDS011;6953;48.810;9.204;2023-09-07T04:28:33;0.40;;;0.40;;
13764;SDS011;6953;48.810;9.204;2023-09-07T04:30:58;0.40;;;0.40;;
13764;SDS011;6953;48.810;9.204;2023-09-07T04:33:24;0.35;;;0.35;;
13764;SDS011;6953;48.810;9.204;2023-09-07T04:35:49;0.40;;;0.40;;
13764;SDS011;6953;48.810;9.204;2023-09-07T04:38:14;0.47;;;0.47;;
13764;SDS011;6953;48.810;9.204;2023-09-07T04:40:39;0.50;;;0.50;;
13764;SDS011;6953;48.810;9.204;2023-09-07T04:43:05;0.40;;;0.40;;
13764;SDS011;6953;48.810;9.204;2023-09-07T04:45:30;0.50;;;0.50;;
13764;SDS011;6953;48.810;9.204;2023-09-07T04:47:55;0.40;;;0.40;;
13764;SDS011;6953;48.810;9.204;2023-09-07T04:50:20;0.40;;;0.40;;
13764;SDS011;6953;48.810;9.204;2023-09-07T04:52:46;0.35;;;0.35;;
13764;SDS011;6953;48.810;9.204;2023-09-07T04:55:11;0.40;;;0.40;;
13764;SDS011;6953;48.810;9.204;2023-09-07T04:57:36;0.40;;;0.40;;
13764;SDS011;6953;48.810;9.204;2023-09-07T05:00:03;0.40;;;0.40;;
13764;SDS011;6953;48.810;9.204;2023-09-07T05:02:29;0.40;;;0.40;;
13764;SDS011;6953;48.810;9.204;2023-09-07T05:04:55;0.40;;;0.40;;
13764;SDS011;6953;48.810;9.204;2023-09-07T05:07:20;0.40;;;0.40;;
13764;SDS011;6953;48.810;9.204;2023-09-07T05:09:45;0.40;;;0.40;;
13764;SDS011;6953;48.810;9.204;2023-09-07T05:12:11;0.40;;;0.40;;
13764;SDS011;6953;48.810;9.204;2023-09-07T05:14:36;0.40;;;0.40;;
13764;SDS011;6953;48.810;9.204;2023-09-07T05:17:01;0.30;;;0.30;;
13764;SDS011;6953;48.810;9.204;2023-09-07T05:19:26;0.40;;;0.40;;
13764;SDS011;6953;48.810;9.204;2023-09-07T05:21:52;0.30;;;0.30;;
13764;SDS011;6953;48.810;9.204;2023-09-07T05:24:17;0.30;;;0.30;;
13764;SDS011;6953;48.810;9.204;2023-09-07T05:26:43;0.20;;;0.20;;
13764;SDS011;6953;48.810;9.204;2023-09-07T05:29:09;0.40;;;0.40;;
13764;SDS011;6953;48.810;9.204;2023-09-07T05:31:35;0.30;;;0.30;;
13764;SDS011;6953;48.810;9.204;2023-09-07T05:34:00;0.40;;;0.40;;
13764;SDS011;6953;48.810;9.204;2023-09-07T05:36:26;0.40;;;0.40;;
13764;SDS011;6953;48.810;9.204;2023-09-07T05:38:52;0.40;;;0.40;;
13764;SDS011;6953;48.810;9.204;2023-09-07T05:41:17;0.40;;;0.40;;
13764;SDS011;6953;48.810;9.204;2023-09-07T05:43:49;0.40;;;0.40;;
13764;SDS011;6953;48.810;9.204;2023-09-07T05:46:17;0.40;;;0.40;;
13764;SDS011;6953;48.810;9.204;2023-09-07T05:48:42;0.40;;;0.40;;
13764;SDS011;6953;48.810;9.204;2023-09-07T05:51:08;0.40;;;0.40;;
13764;SDS011;6953;48.810;9.204;2023-09-07T05:53:33;0.30;;;0.30;;
13764;SDS011;6953;48.810;9.204;2023-09-07T05:55:58;0.40;;;0.40;;
13764;SDS011;6953;48.810;9.204;2023-09-07T05:58:23;0.30;;;0.30;;
13764;SDS011;6953;48.810;9.204;2023-09-07T06:00:49;0.38;;;0.38;;
13764;SDS011;6953;48.810;9.204;2023-09-07T06:03:14;0.30;;;0.30;;
13764;SDS011;6953;48.810;9.204;2023-09-07T06:05:39;0.20;;;0.20;;
13764;SDS011;6953;48.810;9.204;2023-09-07T06:08:05;0.20;;;0.20;;
13764;SDS011;6953;48.810;9.204;2023-09-07T06:10:31;0.20;;;0.20;;
13764;SDS011;6953;48.810;9.204;2023-09-07T06:12:57;0.10;;;0.10;;
13764;SDS011;6953;48.810;9.204;2023-09-07T06:15:22;0.10;;;0.10;;
13764;SDS011;6953;48.810;9.204;2023-09-07T06:17:48;0.10;;;0.10;;
13764;SDS011;6953;48.810;9.204;2023-09-07T06:20:14;0.10;;;0.10;;
13764;SDS011;6953;48.810;9.204;2023-09-07T06:22:40;0.10;;;0.10;;
13764;SDS011;6953;48.810;9.204;2023-09-07T06:25:05;0.10;;;0.10;;
13764;SDS011;6953;48.810;9.204;2023-09-07T06:27:31;0.10;;;0.10;;
13764;SDS011;6953;48.810;9.204;2023-09-07T06:29:59;0.10;;;0.10;;
13764;SDS011;6953;48.810;9.204;2023-09-07T06:32:25;0.10;;;0.10;;
13764;SDS011;6953;48.810;9.204;2023-09-07T06:34:50;0.10;;;0.10;;
13764;SDS011;6953;48.810;9.204;2023-09-07T06:37:16;0.00;;;0.00;;
13764;SDS011;6953;48.810;9.204;2023-09-07T06:39:42;0.10;;;0.10;;
13764;SDS011;6953;48.810;9.204;2023-09-07T06:42:08;0.10;;;0.10;;
13764;SDS011;6953;48.810;9.204;2023-09-07T06:44:35;0.00;;;0.00;;
13764;SDS011;6953;48.810;9.204;2023-09-07T06:47:00;0.00;;;0.00;;
13764;SDS011;6953;48.810;9.204;2023-09-07T06:49:25;0.00;;;0.00;;
13764;SDS011;6953;48.810;9.204;2023-09-07T06:51:53;0.00;;;0.00;;
13764;SDS011;6953;48.810;9.204;2023-09-07T06:54:18;0.00;;;0.00;;
13764;SDS011;6953;48.810;9.204;2023-09-07T06:56:43;0.00;;;0.00;;
13764;SDS011;6953;48.810;9.204;2023-09-07T06:59:09;0.00;;;0.00;;
13764;SDS011;6953;48.810;9.204;2023-09-07T07:01:34;0.00;;;0.00;;
13764;SDS011;6953;48.810;9.204;2023-09-07T07:04:00;0.00;;;0.00;;
13764;SDS011;6953;48.810;9.204;2023-09-07T07:06:26;0.00;;;0.00;;
13764;SDS011;6953;48.810;9.204;2023-09-07T07:08:51;0.00;;;0.00;;
13764;SDS011;6953;48.810;9.204;2023-09-07T07:11:17;0.00;;;0.00;;
13764;SDS011;6953;48.810;9.204;2023-09-07T07:13:42;0.00;;;0.00;;
13764;SDS011;6953;48.810;9.204;2023-09-07T07:16:07;0.00;;;0.00;;
13764;SDS011;6953;48.810;9.204;2023-09-07T07:18:33;0.00;;;0.00;;
13764;SDS011;6953;48.810;9.204;2023-09-07T07:20:58;0.00;;;0.00;;
13764;SDS011;6953;48.810;9.204;2023-09-07T07:23:23;0.00;;;0.00;;
13764;SDS011;6953;48.810;9.204;2023-09-07T07:25:48;0.00;;;0.00;;
13764;SDS011;6953;48.810;9.204;2023-09-07T07:28:14;0.00;;;0.00;;
13764;SDS011;6953;48.810;9.204;2023-09-07T07:30:40;0.00;;;0.00;;
13764;SDS011;6953;48.810;9.204;2023-09-07T07:33:05;0.00;;;0.00;;
13764;SDS011;6953;48.810;9.204;2023-09-07T07:35:32;0.00;;;0.00;;
13764;SDS011;6953;48.810;9.204;2023-09-07T07:37:59;0.00;;;0.00;;
13764;SDS011;6953;48.810;9.204;2023-09-07T07:40:25;0.00;;;0.00;;
13764;SDS011;6953;48.810;9.204;2023-09-07T07:42:51;0.00;;;0.00;;
13764;SDS011;6953;48.810;9.204;2023-09-07T07:45:17;0.00;;;0.00;;
13764;SDS011;6953;48.810;9.204;2023-09-07T07:47:46;0.00;;;0.00;;
13764;SDS011;6953;48.810;9.204;2023-09-07T07:50:13;0.00;;;0.00;;
13764;SDS011;6953;48.810;9.204;2023-09-07T07:52:39;0.00;;;0.00;;
13764;SDS011;6953;48.810;9.204;2023-09-07T07:55:05;0.00;;;0.00;;
13764;SDS011;6953;48.810;9.204;2023-09-07T07:57:31;0.00;;;0.00;;
13764;SDS011;6953;48.810;9.204;2023-09-07T07:59:56;0.00;;;0.00;;
13764;SDS011;6953;48.810;9.204;2023-09-07T08:02:22;0.00;;;0.00;;
13764;SDS011;6953;48.810;9.204;2023-09-07T08:04:47;0.00;;;0.00;;
13764;SDS011;6953;48.810;9.204;2023-09-07T08:07:12;0.00;;;0.00;;
13764;SDS011;6953;48.810;9.204;2023-09-07T08:09:38;0.00;;;0.00;;
13764;SDS011;6953;48.810;9.204;2023-09-07T08:12:03;0.00;;;0.00;;
13764;SDS011;6953;48.810;9.204;2023-09-07T08:14:30;0.00;;;0.00;;
13764;SDS011;6953;48.810;9.204;2023-09-07T08:16:56;0.00;;;0.00;;
13764;SDS011;6953;48.810;9.204;2023-09-07T08:19:21;0.00;;;0.00;;
13764;SDS011;6953;48.810;9.204;2023-09-07T08:21:46;0.00;;;0.00;;
13764;SDS011;6953;48.810;9.204;2023-09-07T08:24:18;0.00;;;0.00;;
13764;SDS011;6953;48.810;9.204;2023-09-07T08:26:43;0.00;;;0.00;;
13764;SDS011;6953;48.810;9.204;2023-09-07T08:29:08;0.00;;;0.00;;
13764;SDS011;6953;48.810;9.204;2023-09-07T08:31:37;0.00;;;0.00;;
13764;SDS011;6953;48.810;9.204;2023-09-07T08:34:06;0.00;;;0.00;;
13764;SDS011;6953;48.810;9.204;2023-09-07T08:36:36;0.00;;;0.00;;
13764;SDS011;6953;48.810;9.204;2023-09-07T08:39:01;0.00;;;0.00;;
13764;SDS011;6953;48.810;9.204;2023-09-07T08:41:36;0.00;;;0.00;;
13764;SDS011;6953;48.810;9.204;2023-09-07T08:44:06;0.00;;;0.00;;
13764;SDS011;6953;48.810;9.204;2023-09-07T08:46:33;0.08;;;0.08;;
13764;SDS011;6953;48.810;9.204;2023-09-07T08:48:59;0.10;;;0.10;;
13764;SDS011;6953;48.810;9.204;2023-09-07T08:51:29;0.00;;;0.00;;
13764;SDS011;6953;48.810;9.204;2023-09-07T08:53:54;0.00;;;0.00;;
13764;SDS011;6953;48.810;9.204;2023-09-07T08:56:21;0.00;;;0.00;;
13764;SDS011;6953;48.810;9.204;2023-09-07T08:58:47;0.00;;;0.00;;
13764;SDS011;6953;48.810;9.204;2023-09-07T09:01:14;0.10;;;0.10;;
13764;SDS011;6953;48.810;9.204;2023-09-07T09:03:40;0.00;;;0.00;;
13764;SDS011;6953;48.810;9.204;2023-09-07T09:06:07;0.08;;;0.08;;
13764;SDS011;6953;48.810;9.204;2023-09-07T09:08:46;0.10;;;0.10;;
13764;SDS011;6953;48.810;9.204;2023-09-07T09:11:15;0.00;;;0.00;;
13764;SDS011;6953;48.810;9.204;2023-09-07T09:13:42;0.00;;;0.00;;
13764;SDS011;6953;48.810;9.204;2023-09-07T09:16:07;0.10;;;0.10;;
13764;SDS011;6953;48.810;9.204;2023-09-07T09:18:33;0.00;;;0.00;;
13764;SDS011;6953;48.810;9.204;2023-09-07T09:20:59;0.10;;;0.10;;
13764;SDS011;6953;48.810;9.204;2023-09-07T09:23:34;0.10;;;0.10;;
13764;SDS011;6953;48.810;9.204;2023-09-07T09:26:03;0.00;;;0.00;;
13764;SDS011;6953;48.810;9.204;2023-09-07T09:28:30;0.00;;;0.00;;
13764;SDS011;6953;48.810;9.204;2023-09-07T09:30:57;0.00;;;0.00;;
13764;SDS011;6953;48.810;9.204;2023-09-07T09:33:23;0.00;;;0.00;;
13764;SDS011;6953;48.810;9.204;2023-09-07T09:35:50;0.00;;;0.00;;
13764;SDS011;6953;48.810;9.204;2023-09-07T09:38:16;0.00;;;0.00;;
13764;SDS011;6953;48.810;9.204;2023-09-07T09:40:42;0.00;;;0.00;;
13764;SDS011;6953;48.810;9.204;2023-09-07T09:43:07;0.00;;;0.00;;
13764;SDS011;6953;48.810;9.204;2023-09-07T09:45:33;0.00;;;0.00;;
13764;SDS011;6953;48.810;9.204;2023-09-07T09:48:00;0.00;;;0.00;;
13764;SDS011;6953;48.810;9.204;2023-09-07T09:50:26;0.00;;;0.00;;
13764;SDS011;6953;48.810;9.204;2023-09-07T09:52:53;0.00;;;0.00;;
13764;SDS011;6953;48.810;9.204;2023-09-07T09:55:19;0.00;;;0.00;;
13764;SDS011;6953;48.810;9.204;2023-09-07T09:57:44;0.00;;;0.00;;
13764;SDS011;6953;48.810;9.204;2023-09-07T10:00:10;0.00;;;0.00;;
13764;SDS011;6953;48.810;9.204;2023-09-07T10:02:42;0.00;;;0.00;;
13764;SDS011;6953;48.810;9.204;2023-09-07T10:05:10;0.00;;;0.00;;
13764;SDS011;6953;48.810;9.204;2023-09-07T10:07:43;0.00;;;0.00;;
13764;SDS011;6953;48.810;9.204;2023-09-07T10:10:10;0.00;;;0.00;;
13764;SDS011;6953;48.810;9.204;2023-09-07T10:13:01;0.00;;;0.00;;
13764;SDS011;6953;48.810;9.204;2023-09-07T10:15:26;0.00;;;0.00;;
13764;SDS011;6953;48.810;9.204;2023-09-07T10:23:16;0.00;;;0.00;;
13764;SDS011;6953;48.810;9.204;2023-09-07T10:25:41;0.00;;;0.00;;
13764;SDS011;6953;48.810;9.204;2023-09-07T10:28:20;0.00;;;0.00;;
13764;SDS011;6953;48.810;9.204;2023-09-07T10:30:59;0.00;;;0.00;;
13764;SDS011;6953;48.810;9.204;2023-09-07T10:33:33;0.00;;;0.00;;
13764;SDS011;6953;48.810;9.204;2023-09-07T10:36:00;0.00;;;0.00;;
13764;SDS011;6953;48.810;9.204;2023-09-07T10:38:26;0.00;;;0.00;;
13764;SDS011;6953;48.810;9.204;2023-09-07T10:40:56;0.00;;;0.00;;
13764;SDS011;6953;48.810;9.204;2023-09-07T10:43:28;0.00;;;0.00;;
13764;SDS011;6953;48.810;9.204;2023-09-07T10:45:55;0.00;;;0.00;;
13764;SDS011;6953;48.810;9.204;2023-09-07T10:48:22;0.00;;;0.00;;
13764;SDS011;6953;48.810;9.204;2023-09-07T10:50:51;0.00;;;0.00;;
13764;SDS011;6953;48.810;9.204;2023-09-07T10:53:27;0.00;;;0.00;;
13764;SDS011;6953;48.810;9.204;2023-09-07T10:55:53;0.00;;;0.00;;
13764;SDS011;6953;48.810;9.204;2023-09-07T10:58:29;0.00;;;0.00;;
13764;SDS011;6953;48.810;9.204;2023-09-07T11:00:56;0.00;;;0.00;;
13764;SDS011;6953;48.810;9.204;2023-09-07T11:03:23;0.00;;;0.00;;
13764;SDS011;6953;48.810;9.204;2023-09-07T11:05:51;0.00;;;0.00;;
13764;SDS011;6953;48.810;9.204;2023-09-07T11:08:18;0.00;;;0.00;;
13764;SDS011;6953;48.810;9.204;2023-09-07T11:10:43;0.00;;;0.00;;
13764;SDS011;6953;48.810;9.204;2023-09-07T11:13:09;0.00;;;0.00;;
13764;SDS011;6953;48.810;9.204;2023-09-07T11:15:35;0.00;;;0.00;;
13764;SDS011;6953;48.810;9.204;2023-09-07T11:18:07;0.00;;;0.00;;
13764;SDS011;6953;48.810;9.204;2023-09-07T11:20:33;0.00;;;0.00;;
13764;SDS011;6953;48.810;9.204;2023-09-07T11:22:59;0.00;;;0.00;;
13764;SDS011;6953;48.810;9.204;2023-09-07T11:25:25;0.00;;;0.00;;
13764;SDS011;6953;48.810;9.204;2023-09-07T11:27:51;0.00;;;0.00;;
13764;SDS011;6953;48.810;9.204;2023-09-07T11:30:19;0.00;;;0.00;;
13764;SDS011;6953;48.810;9.204;2023-09-07T11:32:45;0.00;;;0.00;;
13764;SDS011;6953;48.810;9.204;2023-09-07T11:35:11;0.00;;;0.00;;
13764;SDS011;6953;48.810;9.204;2023-09-07T11:37:36;0.00;;;0.00;;
13764;SDS011;6953;48.810;9.204;2023-09-07T11:40:02;0.00;;;0.00;;
13764;SDS011;6953;48.810;9.204;2023-09-07T11:42:32;0.00;;;0.00;;
13764;SDS011;6953;48.810;9.204;2023-09-07T11:44:57;0.00;;;0.00;;
13764;SDS011;6953;48.810;9.204;2023-09-07T11:47:23;0.00;;;0.00;;
13764;SDS011;6953;48.810;9.204;2023-09-07T11:49:48;0.00;;;0.00;;
13764;SDS011;6953;48.810;9.204;2023-09-07T11:52:14;0.00;;;0.00;;
13764;SDS011;6953;48.810;9.204;2023-09-07T11:54:39;0.00;;;0.00;;
13764;SDS011;6953;48.810;9.204;2023-09-07T11:57:04;0.00;;;0.00;;
13764;SDS011;6953;48.810;9.204;2023-09-07T11:59:30;0.00;;;0.00;;
13764;SDS011;6953;48.810;9.204;2023-09-07T12:01:55;0.00;;;0.00;;
13764;SDS011;6953;48.810;9.204;2023-09-07T12:04:20;0.00;;;0.00;;
13764;SDS011;6953;48.810;9.204;2023-09-07T12:06:46;0.00;;;0.00;;
13764;SDS011;6953;48.810;9.204;2023-09-07T12:09:11;0.00;;;0.00;;
13764;SDS011;6953;48.810;9.204;2023-09-07T12:11:37;0.00;;;0.00;;
13764;SDS011;6953;48.810;9.204;2023-09-07T12:14:03;0.00;;;0.00;;
13764;SDS011;6953;48.810;9.204;2023-09-07T12:16:29;0.00;;;0.00;;
13764;SDS011;6953;48.810;9.204;2023-09-07T12:18:55;0.00;;;0.00;;
13764;SDS011;6953;48.810;9.204;2023-09-07T12:21:21;0.00;;;0.00;;
13764;SDS011;6953;48.810;9.204;2023-09-07T12:23:46;0.00;;;0.00;;
13764;SDS011;6953;48.810;9.204;2023-09-07T12:26:12;0.00;;;0.00;;
13764;SDS011;6953;48.810;9.204;2023-09-07T12:28:39;0.00;;;0.00;;
13764;SDS011;6953;48.810;9.204;2023-09-07T12:31:04;0.00;;;0.00;;
13764;SDS011;6953;48.810;9.204;2023-09-07T12:33:30;0.00;;;0.00;;
13764;SDS011;6953;48.810;9.204;2023-09-07T12:35:55;0.00;;;0.00;;
13764;SDS011;6953;48.810;9.204;2023-09-07T12:38:21;0.00;;;0.00;;
13764;SDS011;6953;48.810;9.204;2023-09-07T12:40:49;0.00;;;0.00;;
13764;SDS011;6953;48.810;9.204;2023-09-07T12:43:14;0.00;;;0.00;;
13764;SDS011;6953;48.810;9.204;2023-09-07T12:45:40;0.00;;;0.00;;
13764;SDS011;6953;48.810;9.204;2023-09-07T12:48:05;0.00;;;0.00;;
13764;SDS011;6953;48.810;9.204;2023-09-07T12:50:31;0.00;;;0.00;;
13764;SDS011;6953;48.810;9.204;2023-09-07T12:52:56;0.00;;;0.00;;
13764;SDS011;6953;48.810;9.204;2023-09-07T12:55:22;0.00;;;0.00;;
13764;SDS011;6953;48.810;9.204;2023-09-07T12:57:48;0.00;;;0.00;;
13764;SDS011;6953;48.810;9.204;2023-09-07T13:00:14;0.00;;;0.00;;
13764;SDS011;6953;48.810;9.204;2023-09-07T13:02:39;0.00;;;0.00;;
13764;SDS011;6953;48.810;9.204;2023-09-07T13:05:05;0.00;;;0.00;;
13764;SDS011;6953;48.810;9.204;2023-09-07T13:07:31;0.00;;;0.00;;
13764;SDS011;6953;48.810;9.204;2023-09-07T13:10:00;0.00;;;0.00;;
13764;SDS011;6953;48.810;9.204;2023-09-07T13:12:28;0.00;;;0.00;;
13764;SDS011;6953;48.810;9.204;2023-09-07T13:14:54;0.00;;;0.00;;
13764;SDS011;6953;48.810;9.204;2023-09-07T13:17:19;0.00;;;0.00;;
13764;SDS011;6953;48.810;9.204;2023-09-07T13:19:45;0.00;;;0.00;;
13764;SDS011;6953;48.810;9.204;2023-09-07T13:22:10;0.00;;;0.00;;
13764;SDS011;6953;48.810;9.204;2023-09-07T13:24:35;0.00;;;0.00;;
13764;SDS011;6953;48.810;9.204;2023-09-07T13:27:01;0.00;;;0.00;;
13764;SDS011;6953;48.810;9.204;2023-09-07T13:29:28;0.00;;;0.00;;
13764;SDS011;6953;48.810;9.204;2023-09-07T13:31:53;0.00;;;0.00;;
13764;SDS011;6953;48.810;9.204;2023-09-07T13:34:20;0.00;;;0.00;;
13764;SDS011;6953;48.810;9.204;2023-09-07T13:36:46;0.00;;;0.00;;
13764;SDS011;6953;48.810;9.204;2023-09-07T13:39:11;0.00;;;0.00;;
13764;SDS011;6953;48.810;9.204;2023-09-07T13:41:37;0.00;;;0.00;;
13764;SDS011;6953;48.810;9.204;2023-09-07T13:44:02;0.00;;;0.00;;
13764;SDS011;6953;48.810;9.204;2023-09-07T13:46:27;0.00;;;0.00;;
13764;SDS011;6953;48.810;9.204;2023-09-07T13:48:53;0.00;;;0.00;;
13764;SDS011;6953;48.810;9.204;2023-09-07T13:51:19;0.00;;;0.00;;
13764;SDS011;6953;48.810;9.204;2023-09-07T13:53:44;0.00;;;0.00;;
13764;SDS011;6953;48.810;9.204;2023-09-07T13:56:10;0.00;;;0.00;;
13764;SDS011;6953;48.810;9.204;2023-09-07T13:58:35;0.00;;;0.00;;
13764;SDS011;6953;48.810;9.204;2023-09-07T14:01:00;0.00;;;0.00;;
13764;SDS011;6953;48.810;9.204;2023-09-07T14:03:26;0.00;;;0.00;;
13764;SDS011;6953;48.810;9.204;2023-09-07T14:05:51;0.00;;;0.00;;
13764;SDS011;6953;48.810;9.204;2023-09-07T14:08:16;0.00;;;0.00;;
13764;SDS011;6953;48.810;9.204;2023-09-07T14:10:48;0.00;;;0.00;;
13764;SDS011;6953;48.810;9.204;2023-09-07T14:13:13;0.00;;;0.00;;
13764;SDS011;6953;48.810;9.204;2023-09-07T14:15:38;0.00;;;0.00;;
13764;SDS011;6953;48.810;9.204;2023-09-07T14:18:04;0.00;;;0.00;;
13764;SDS011;6953;48.810;9.204;2023-09-07T14:20:29;0.00;;;0.00;;
13764;SDS011;6953;48.810;9.204;2023-09-07T14:22:54;0.00;;;0.00;;
13764;SDS011;6953;48.810;9.204;2023-09-07T14:25:22;0.00;;;0.00;;
13764;SDS011;6953;48.810;9.204;2023-09-07T14:27:50;0.00;;;0.00;;
13764;SDS011;6953;48.810;9.204;2023-09-07T14:30:15;0.00;;;0.00;;
13764;SDS011;6953;48.810;9.204;2023-09-07T14:32:41;0.00;;;0.00;;
13764;SDS011;6953;48.810;9.204;2023-09-07T14:35:07;0.00;;;0.00;;
13764;SDS011;6953;48.810;9.204;2023-09-07T14:37:34;0.00;;;0.00;;
13764;SDS011;6953;48.810;9.204;2023-09-07T14:39:59;0.00;;;0.00;;
13764;SDS011;6953;48.810;9.204;2023-09-07T14:42:24;0.00;;;0.00;;
13764;SDS011;6953;48.810;9.204;2023-09-07T14:44:50;0.00;;;0.00;;
13764;SDS011;6953;48.810;9.204;2023-09-07T14:47:15;0.00;;;0.00;;
13764;SDS011;6953;48.810;9.204;2023-09-07T14:49:41;0.00;;;0.00;;
13764;SDS011;6953;48.810;9.204;2023-09-07T14:52:06;0.00;;;0.00;;
13764;SDS011;6953;48.810;9.204;2023-09-07T14:54:31;0.00;;;0.00;;
13764;SDS011;6953;48.810;9.204;2023-09-07T14:56:57;0.00;;;0.00;;
13764;SDS011;6953;48.810;9.204;2023-09-07T14:59:22;0.00;;;0.00;;